This is the latest recevied weather packets stored in our database for station/object OK2ZAW-21. If no packets are shown the sender has not sent any weather packets the latest 10 day(s).
| Time | Temp. | Humidity | Pressure | Rain* | Wind** | Luminosity | Snow |
|---|---|---|---|---|---|---|---|
| 1788629775 | 16.67° C | 84% | 1023.1 hPa | - | - | 420 W/m² | - |
| 1788629464 | 16.67° C | 83% | 1023.1 hPa | - | - | 420 W/m² | - |
| 1788629154 | 17.22° C | 81% | 1023 hPa | - | - | 420 W/m² | - |
| 1788628843 | 17.22° C | 80% | 1023.1 hPa | - | - | 420 W/m² | - |
| 1788628532 | 17.22° C | 78% | 1023 hPa | - | - | 420 W/m² | - |
| 1788627910 | 18.33° C | 70% | 1022.8 hPa | - | - | 420 W/m² | - |
| 1788627599 | 17.78° C | 68% | 1022.2 hPa | - | - | 420 W/m² | - |
| 1788627288 | 18.89° C | 67% | 1022.7 hPa | - | - | 421 W/m² | - |
| 1788626977 | 18.89° C | 66% | 1022.5 hPa | - | - | 421 W/m² | - |
| 1788626666 | 18.33° C | 65% | 1022 hPa | - | - | 421 W/m² | - |
| 1788626354 | 18.89° C | 64% | 1022.4 hPa | - | - | 421 W/m² | - |
| 1788626043 | 19.44° C | 63% | 1022.5 hPa | - | - | 421 W/m² | - |
| 1788625110 | 19.44° C | 67% | 1022.6 hPa | - | - | 421 W/m² | - |
| 1788624799 | 18.89° C | 66% | 1022.5 hPa | - | - | 421 W/m² | - |
| 1788624488 | 18.33° C | 71% | 1022.5 hPa | - | - | 421 W/m² | - |
| 1788624177 | 18.33° C | 73% | 1022.6 hPa | - | - | 421 W/m² | - |
| 1788623555 | 18.33° C | 74% | 1022.5 hPa | - | - | 421 W/m² | - |
| 1788623244 | 17.78° C | 73% | 1022.4 hPa | - | - | 421 W/m² | - |
| 1788622933 | 18.89° C | 68% | 1022.3 hPa | - | - | 421 W/m² | - |
| 1788622621 | 18.89° C | 67% | 1022.3 hPa | - | - | 421 W/m² | - |
| 1788622310 | 18.89° C | 64% | 1022.4 hPa | - | - | 421 W/m² | - |
| 1788621999 | 18.89° C | 63% | 1022.2 hPa | - | - | 421 W/m² | - |
| 1788621377 | 18.33° C | 65% | 1022.3 hPa | - | - | 422 W/m² | - |
| 1788620444 | 19.44° C | 56% | 1022.1 hPa | - | - | 422 W/m² | - |
| 1788620133 | 18.89° C | 57% | 1022 hPa | - | - | 422 W/m² | - |
* Rain since midnight (hover to see other rain measurements)
** Current wind speed in m/s (hover to see current wind gust speed)